createdAt,value
2022-10-01T00:01:10.177Z,9.21
2022-10-01T00:03:36.748Z,9.33
2022-10-01T00:06:03.040Z,9.34
2022-10-01T00:08:29.359Z,9.34
2022-10-01T00:10:55.668Z,9.35
2022-10-01T00:13:21.915Z,9.34
2022-10-01T00:15:48.171Z,9.28
2022-10-01T00:18:14.420Z,9.27
2022-10-01T00:20:43.439Z,9.27
2022-10-01T00:23:09.694Z,9.30
2022-10-01T00:25:36.104Z,9.35
2022-10-01T00:28:02.460Z,9.28
2022-10-01T00:30:28.772Z,9.27
2022-10-01T00:32:55.091Z,9.30
2022-10-01T00:35:22.419Z,9.33
2022-10-01T00:37:50.511Z,9.32
2022-10-01T00:40:16.774Z,9.25
2022-10-01T00:42:43.591Z,9.26
2022-10-01T00:45:09.844Z,9.27
2022-10-01T00:47:36.120Z,9.27
2022-10-01T00:50:02.460Z,9.31
2022-10-01T00:52:29.017Z,9.33
2022-10-01T00:54:55.766Z,9.32
2022-10-01T00:57:22.946Z,9.35
2022-10-01T00:59:49.581Z,9.34
2022-10-01T01:02:15.882Z,9.36
2022-10-01T01:04:42.180Z,9.44
2022-10-01T01:07:08.440Z,9.40
2022-10-01T01:09:34.716Z,9.41
2022-10-01T01:12:01.327Z,9.39
2022-10-01T01:14:27.596Z,9.44
2022-10-01T01:16:53.839Z,9.38
2022-10-01T01:19:20.695Z,9.33
2022-10-01T01:21:47.436Z,9.35
2022-10-01T01:24:13.715Z,9.35
2022-10-01T01:26:42.200Z,9.33
2022-10-01T01:29:08.518Z,9.27
2022-10-01T01:31:34.995Z,9.28
2022-10-01T01:34:01.413Z,9.29
2022-10-01T01:36:27.744Z,9.27
2022-10-01T01:38:56.988Z,9.25
2022-10-01T01:41:23.289Z,9.26
2022-10-01T01:43:49.558Z,9.20
2022-10-01T01:46:17.634Z,9.24
2022-10-01T01:48:47.499Z,9.13
2022-10-01T01:51:13.760Z,9.15
2022-10-01T01:53:40.026Z,9.13
2022-10-01T01:56:06.270Z,9.15
2022-10-01T01:58:32.524Z,9.14
2022-10-01T02:00:58.770Z,9.05
2022-10-01T02:03:25.024Z,9.05
2022-10-01T02:05:52.317Z,9.03
2022-10-01T02:08:18.580Z,9.01
2022-10-01T02:10:44.822Z,9.04
2022-10-01T02:13:11.075Z,8.89
2022-10-01T02:15:37.557Z,8.89
2022-10-01T02:18:03.818Z,8.95
2022-10-01T02:20:30.102Z,8.91
2022-10-01T02:22:58.283Z,8.84
2022-10-01T02:25:26.836Z,8.88
2022-10-01T02:27:53.541Z,8.87
2022-10-01T02:30:19.885Z,8.83
2022-10-01T02:32:46.136Z,8.84
2022-10-01T02:35:12.401Z,8.83
2022-10-01T02:37:38.691Z,8.83
2022-10-01T02:40:04.942Z,8.82
2022-10-01T02:42:31.208Z,8.81
2022-10-01T02:44:57.506Z,8.78
2022-10-01T02:47:23.746Z,8.80
2022-10-01T02:49:50.016Z,8.73
2022-10-01T02:52:16.306Z,8.69
2022-10-01T02:54:42.576Z,8.73
2022-10-01T02:57:24.406Z,8.73
2022-10-01T02:59:50.666Z,8.66
2022-10-01T03:02:16.999Z,8.66
2022-10-01T03:04:43.359Z,8.64
2022-10-01T03:07:09.612Z,8.55
2022-10-01T03:09:36.774Z,8.54
2022-10-01T03:12:02.971Z,8.57
2022-10-01T03:14:29.260Z,8.51
2022-10-01T03:16:55.506Z,8.56
2022-10-01T03:19:21.907Z,8.56
2022-10-01T03:21:48.299Z,8.51
2022-10-01T03:24:14.574Z,8.53
2022-10-01T03:26:40.819Z,8.47
2022-10-01T03:29:07.085Z,8.49
2022-10-01T03:31:33.697Z,8.47
2022-10-01T03:34:00.586Z,8.45
2022-10-01T03:36:26.834Z,8.39
2022-10-01T03:38:53.096Z,8.23
2022-10-01T03:41:19.334Z,8.20
2022-10-01T03:43:45.574Z,7.98
2022-10-01T03:46:11.912Z,8.09
2022-10-01T03:48:38.209Z,8.07
2022-10-01T03:51:04.450Z,8.15
2022-10-01T03:53:33.725Z,8.23
2022-10-01T03:55:59.962Z,8.26
2022-10-01T03:58:26.214Z,8.15
2022-10-01T04:00:52.954Z,8.27
2022-10-01T04:03:19.289Z,8.21
2022-10-01T04:05:45.567Z,8.21
2022-10-01T04:08:11.864Z,8.22
2022-10-01T04:10:38.119Z,8.17
2022-10-01T04:13:04.716Z,8.22
2022-10-01T04:15:30.996Z,8.22
2022-10-01T04:17:57.972Z,8.26
2022-10-01T04:20:24.452Z,8.31
2022-10-01T04:22:50.712Z,8.32
2022-10-01T04:25:16.983Z,8.27
2022-10-01T04:27:43.303Z,8.23
2022-10-01T04:30:09.628Z,8.03
2022-10-01T04:32:35.870Z,8.27
2022-10-01T04:35:04.316Z,8.32
2022-10-01T04:37:31.103Z,8.33
2022-10-01T04:39:57.384Z,8.34
2022-10-01T04:42:23.659Z,8.27
2022-10-01T04:44:49.855Z,8.18
2022-10-01T04:47:16.119Z,8.19
2022-10-01T04:49:42.517Z,8.20
2022-10-01T04:52:08.758Z,8.21
2022-10-01T04:54:35.008Z,8.21
2022-10-01T04:57:01.250Z,8.26
2022-10-01T04:59:27.500Z,8.04
2022-10-01T05:01:53.884Z,8.10
2022-10-01T05:04:20.174Z,8.20
2022-10-01T05:06:46.406Z,8.23
2022-10-01T05:09:12.656Z,8.28
2022-10-01T05:11:39.047Z,8.23
2022-10-01T05:14:05.311Z,8.18
2022-10-01T05:16:31.571Z,8.20
2022-10-01T05:18:58.886Z,8.20
2022-10-01T05:21:25.142Z,8.22
2022-10-01T05:23:51.744Z,8.29
2022-10-01T05:26:18.006Z,8.35
2022-10-01T05:28:47.411Z,8.41
2022-10-01T05:31:14.023Z,8.51
2022-10-01T05:33:40.350Z,8.52
2022-10-01T05:36:06.852Z,8.45
2022-10-01T05:38:37.248Z,8.52
2022-10-01T05:41:03.632Z,8.63
2022-10-01T05:43:30.566Z,8.72
2022-10-01T05:45:56.862Z,8.78
2022-10-01T05:48:23.199Z,8.83
2022-10-01T05:50:49.820Z,8.93
2022-10-01T05:53:16.126Z,8.99
2022-10-01T05:55:42.936Z,9.04
2022-10-01T05:58:12.013Z,9.02
2022-10-01T06:00:38.258Z,9.03
2022-10-01T06:03:04.746Z,9.10
2022-10-01T06:05:31.323Z,9.06
2022-10-01T06:07:57.603Z,9.14
2022-10-01T06:10:23.882Z,9.19
2022-10-01T06:12:50.163Z,9.24
2022-10-01T06:15:16.414Z,9.28
2022-10-01T06:17:45.741Z,9.33
2022-10-01T06:20:12.859Z,9.36
2022-10-01T06:22:39.037Z,9.41
2022-10-01T06:25:05.278Z,9.46
2022-10-01T06:27:31.543Z,9.48
2022-10-01T06:29:57.796Z,9.53
2022-10-01T06:32:24.043Z,9.60
2022-10-01T06:34:50.292Z,9.69
2022-10-01T06:37:17.107Z,9.75
2022-10-01T06:39:44.516Z,9.87
2022-10-01T06:42:10.779Z,9.95
2022-10-01T06:44:37.026Z,9.99
2022-10-01T06:47:03.279Z,10.07
2022-10-01T06:49:29.536Z,10.11
2022-10-01T06:52:14.168Z,10.16
2022-10-01T06:54:40.426Z,10.23
2022-10-01T06:57:07.011Z,10.24
2022-10-01T06:59:33.267Z,10.30
2022-10-01T07:01:59.585Z,10.42
2022-10-01T07:04:25.879Z,10.43
2022-10-01T07:06:52.135Z,10.51
2022-10-01T07:09:18.414Z,10.58
2022-10-01T07:11:44.682Z,10.59
2022-10-01T07:14:11.015Z,10.63
2022-10-01T07:16:37.324Z,10.66
2022-10-01T07:19:03.579Z,10.62
2022-10-01T07:21:29.984Z,10.63
2022-10-01T07:23:56.243Z,10.60
2022-10-01T07:26:22.507Z,10.69
2022-10-01T07:28:48.756Z,10.81
2022-10-01T07:31:15.039Z,10.90
2022-10-01T07:33:41.320Z,10.93
2022-10-01T07:36:07.588Z,10.98
2022-10-01T07:38:33.834Z,11.02
2022-10-01T07:41:02.433Z,11.03
2022-10-01T07:43:28.688Z,11.00
2022-10-01T07:48:46.157Z,11.06
2022-10-01T07:51:12.409Z,11.15
2022-10-01T07:53:38.684Z,11.22
2022-10-01T07:56:04.983Z,11.24
2022-10-01T07:58:31.295Z,11.38
2022-10-01T08:01:00.042Z,11.49
2022-10-01T08:03:26.363Z,11.69
2022-10-01T08:05:55.495Z,11.81
2022-10-01T08:08:21.755Z,11.84
2022-10-01T08:10:49.992Z,11.89
2022-10-01T08:13:16.262Z,12.06
2022-10-01T08:15:42.588Z,12.20
2022-10-01T08:18:08.849Z,12.20
2022-10-01T08:20:35.119Z,12.16
2022-10-01T08:23:01.381Z,12.26
2022-10-01T08:25:27.727Z,12.32
2022-10-01T08:27:54.034Z,12.38
2022-10-01T08:30:20.328Z,12.40
2022-10-01T08:32:46.585Z,12.33
2022-10-01T08:35:12.888Z,12.42
2022-10-01T08:37:39.395Z,12.50
2022-10-01T08:40:05.978Z,12.47
2022-10-01T08:42:33.306Z,12.54
2022-10-01T08:45:01.378Z,12.51
2022-10-01T08:47:27.557Z,12.45
2022-10-01T08:49:53.826Z,12.55
2022-10-01T08:52:20.066Z,12.71
2022-10-01T08:54:46.469Z,12.63
2022-10-01T08:57:12.714Z,12.86
2022-10-01T08:59:39.367Z,12.87
2022-10-01T09:02:05.606Z,13.07
2022-10-01T09:04:31.979Z,13.08
2022-10-01T09:06:58.271Z,13.10
2022-10-01T09:09:24.553Z,13.27
2022-10-01T09:11:50.823Z,13.32
2022-10-01T09:14:17.079Z,13.37
2022-10-01T09:16:43.439Z,13.55
2022-10-01T09:19:10.612Z,13.60
2022-10-01T09:21:37.036Z,13.36
2022-10-01T09:24:03.401Z,13.26
2022-10-01T09:26:30.029Z,13.24
2022-10-01T09:28:56.326Z,13.21
2022-10-01T09:31:22.660Z,13.19
2022-10-01T09:33:48.966Z,13.20
2022-10-01T09:36:15.223Z,13.13
2022-10-01T09:38:41.543Z,13.25
2022-10-01T09:41:07.977Z,13.40
2022-10-01T09:43:34.222Z,13.38
2022-10-01T09:46:00.601Z,13.41
2022-10-01T09:48:27.104Z,13.24
2022-10-01T09:50:56.023Z,13.30
2022-10-01T09:53:22.291Z,13.29
2022-10-01T09:55:48.578Z,13.26
2022-10-01T09:58:14.835Z,13.20
2022-10-01T10:00:41.495Z,13.32
2022-10-01T10:03:11.209Z,13.32
2022-10-01T10:05:38.083Z,13.40
2022-10-01T10:08:04.571Z,13.32
2022-10-01T10:10:30.851Z,13.35
2022-10-01T10:12:57.404Z,13.43
2022-10-01T10:15:26.125Z,13.47
2022-10-01T10:17:52.478Z,13.57
2022-10-01T10:20:18.818Z,13.56
2022-10-01T10:22:45.081Z,13.44
2022-10-01T10:25:11.322Z,13.43
2022-10-01T10:27:37.591Z,13.68
2022-10-01T10:30:04.067Z,13.72
2022-10-01T10:32:30.329Z,13.78
2022-10-01T10:35:02.026Z,13.82
2022-10-01T10:37:29.299Z,13.83
2022-10-01T10:39:55.555Z,13.92
2022-10-01T10:42:23.030Z,14.03
2022-10-01T10:44:49.291Z,13.99
2022-10-01T10:47:15.571Z,13.82
2022-10-01T10:49:41.831Z,13.82
2022-10-01T10:52:08.225Z,13.86
2022-10-01T10:54:37.511Z,13.74
2022-10-01T10:57:03.776Z,13.66
2022-10-01T10:59:31.642Z,13.60
2022-10-01T11:01:58.018Z,13.54
2022-10-01T11:04:24.958Z,13.48
2022-10-01T11:06:51.237Z,13.35
2022-10-01T11:09:17.499Z,13.42
2022-10-01T11:11:43.800Z,13.50
2022-10-01T11:14:10.301Z,13.36
2022-10-01T11:16:37.122Z,13.40
2022-10-01T11:19:03.595Z,13.39
2022-10-01T11:21:29.876Z,13.34
2022-10-01T11:23:56.210Z,13.32
2022-10-01T11:26:22.479Z,13.23
2022-10-01T11:28:48.736Z,13.25
2022-10-01T11:31:15.058Z,13.28
2022-10-01T11:33:44.865Z,13.22
2022-10-01T11:36:11.155Z,13.23
2022-10-01T11:38:37.783Z,13.07
2022-10-01T11:41:04.227Z,13.16
2022-10-01T11:43:30.483Z,13.22
2022-10-01T11:45:56.787Z,13.18
2022-10-01T11:48:25.448Z,13.27
2022-10-01T11:50:51.692Z,13.05
2022-10-01T11:53:18.091Z,13.16
2022-10-01T11:56:02.882Z,13.20
2022-10-01T11:58:47.684Z,13.12
2022-10-01T12:01:14.187Z,13.24
2022-10-01T12:03:40.444Z,13.27
2022-10-01T12:06:09.355Z,13.22
2022-10-01T12:08:36.580Z,13.22
2022-10-01T12:11:02.834Z,13.26
2022-10-01T12:13:29.139Z,13.13
2022-10-01T12:15:56.695Z,13.01
2022-10-01T12:18:22.986Z,12.81
2022-10-01T12:20:49.255Z,12.95
2022-10-01T12:23:17.780Z,12.97
2022-10-01T12:25:44.032Z,12.93
2022-10-01T12:28:11.326Z,12.84
2022-10-01T12:30:37.626Z,12.73
2022-10-01T12:33:04.753Z,12.87
2022-10-01T12:35:35.268Z,12.83
2022-10-01T12:38:01.545Z,12.82
2022-10-01T12:40:30.483Z,12.86
2022-10-01T12:42:59.885Z,12.83
2022-10-01T12:45:28.948Z,12.86
2022-10-01T12:47:55.214Z,12.87
2022-10-01T12:50:21.775Z,12.83
2022-10-01T12:52:48.032Z,12.77
2022-10-01T12:55:14.298Z,12.84
2022-10-01T12:57:40.748Z,12.65
2022-10-01T13:00:07.893Z,12.56
2022-10-01T13:02:34.220Z,12.79
2022-10-01T13:05:00.482Z,12.88
2022-10-01T13:07:26.961Z,12.99
2022-10-01T13:09:53.231Z,13.05
2022-10-01T13:12:19.491Z,12.91
2022-10-01T13:14:45.733Z,12.87
2022-10-01T13:17:12.058Z,12.94
2022-10-01T13:19:38.320Z,12.92
2022-10-01T13:22:08.560Z,12.92
2022-10-01T13:24:34.854Z,12.92
2022-10-01T13:27:01.333Z,12.95
2022-10-01T13:29:27.582Z,12.91
2022-10-01T13:31:55.063Z,12.92
2022-10-01T13:34:22.023Z,12.89
2022-10-01T13:36:48.311Z,12.87
2022-10-01T13:39:14.577Z,12.83
2022-10-01T13:41:40.820Z,12.81
2022-10-01T13:44:07.929Z,12.83
2022-10-01T13:46:34.365Z,12.80
2022-10-01T13:49:00.796Z,12.93
2022-10-01T13:51:27.047Z,12.94
2022-10-01T13:53:53.412Z,13.02
2022-10-01T13:56:19.662Z,12.77
2022-10-01T13:58:46.004Z,12.91
2022-10-01T14:01:15.024Z,12.86
2022-10-01T14:03:42.454Z,12.90
2022-10-01T14:06:08.699Z,12.96
2022-10-01T14:08:35.079Z,13.01
2022-10-01T14:11:20.182Z,13.07
2022-10-01T14:14:04.946Z,13.09
2022-10-01T14:16:31.645Z,13.05
2022-10-01T14:18:58.177Z,13.10
2022-10-01T14:21:25.691Z,13.12
2022-10-01T14:23:51.939Z,13.12
2022-10-01T14:26:18.242Z,13.21
2022-10-01T14:28:44.488Z,13.25
2022-10-01T14:31:10.786Z,13.24
2022-10-01T14:33:37.178Z,13.23
2022-10-01T14:36:03.439Z,13.23
2022-10-01T14:38:29.758Z,13.29
2022-10-01T14:40:56.034Z,13.31
2022-10-01T14:43:22.311Z,13.14
2022-10-01T14:45:48.591Z,13.20
2022-10-01T14:48:14.875Z,13.06
2022-10-01T14:50:41.118Z,13.20
2022-10-01T14:53:08.611Z,13.25
2022-10-01T14:55:34.864Z,13.26
2022-10-01T14:58:01.148Z,13.18
2022-10-01T15:00:27.701Z,13.31
2022-10-01T15:02:53.983Z,13.30
2022-10-01T15:05:20.556Z,13.31
2022-10-01T15:07:47.253Z,13.38
2022-10-01T15:10:13.520Z,13.50
2022-10-01T15:12:39.814Z,13.31
2022-10-01T15:15:06.074Z,13.19
2022-10-01T15:17:32.346Z,13.31
2022-10-01T15:19:58.655Z,13.31
2022-10-01T15:22:26.224Z,13.35
2022-10-01T15:24:52.753Z,13.25
2022-10-01T15:27:18.997Z,13.26
2022-10-01T15:29:45.279Z,13.39
2022-10-01T15:32:11.814Z,13.68
2022-10-01T15:34:38.204Z,13.69
2022-10-01T15:37:04.458Z,13.71
2022-10-01T15:39:30.717Z,13.55
2022-10-01T15:41:56.979Z,13.52
2022-10-01T15:44:23.233Z,13.60
2022-10-01T15:46:49.504Z,13.57
2022-10-01T15:49:15.895Z,13.81
2022-10-01T15:51:42.154Z,13.46
2022-10-01T15:54:08.731Z,13.52
2022-10-01T15:56:35.494Z,13.68
2022-10-01T15:59:02.027Z,13.61
2022-10-01T16:01:28.324Z,13.50
2022-10-01T16:03:54.674Z,13.60
2022-10-01T16:06:20.958Z,13.54
2022-10-01T16:08:47.370Z,13.67
2022-10-01T16:11:13.645Z,13.50
2022-10-01T16:13:39.896Z,13.29
2022-10-01T16:16:06.684Z,13.15
2022-10-01T16:18:34.685Z,13.00
2022-10-01T16:21:00.942Z,13.00
2022-10-01T16:23:27.195Z,12.85
2022-10-01T16:25:53.484Z,12.86
2022-10-01T16:28:19.833Z,12.77
2022-10-01T16:30:46.137Z,12.65
2022-10-01T16:33:12.401Z,12.68
2022-10-01T16:35:40.650Z,12.62
2022-10-01T16:38:08.275Z,12.78
2022-10-01T16:40:34.580Z,12.66
2022-10-01T16:43:00.822Z,12.58
2022-10-01T16:45:27.741Z,12.56
2022-10-01T16:47:54.151Z,12.64
2022-10-01T16:50:21.344Z,12.61
2022-10-01T16:52:47.600Z,12.58
2022-10-01T16:55:13.860Z,12.77
2022-10-01T16:57:40.644Z,12.61
2022-10-01T17:00:06.908Z,12.58
2022-10-01T17:02:33.167Z,12.66
2022-10-01T17:05:00.769Z,12.66
2022-10-01T17:07:27.021Z,12.72
2022-10-01T17:09:53.287Z,12.67
2022-10-01T17:12:19.706Z,12.88
2022-10-01T17:14:45.972Z,12.78
2022-10-01T17:17:12.219Z,12.82
2022-10-01T17:19:38.507Z,12.86
2022-10-01T17:22:04.755Z,12.84
2022-10-01T17:24:32.565Z,13.06
2022-10-01T17:26:58.820Z,12.89
2022-10-01T17:29:25.082Z,12.93
2022-10-01T17:31:53.143Z,12.86
2022-10-01T17:34:20.512Z,12.91
2022-10-01T17:36:46.763Z,12.87
2022-10-01T17:39:13.018Z,12.90
2022-10-01T17:41:39.307Z,12.96
2022-10-01T17:44:05.566Z,13.06
2022-10-01T17:46:31.915Z,13.05
2022-10-01T17:48:58.387Z,13.10
2022-10-01T17:51:25.741Z,13.22
2022-10-01T17:53:52.601Z,13.13
2022-10-01T17:56:18.850Z,13.16
2022-10-01T17:58:46.062Z,13.23
2022-10-01T18:01:13.382Z,13.19
2022-10-01T18:03:39.799Z,13.12
2022-10-01T18:06:07.538Z,13.29
2022-10-01T18:08:54.123Z,13.26
2022-10-01T18:11:20.287Z,13.19
2022-10-01T18:13:46.564Z,13.26
2022-10-01T18:16:16.056Z,13.26
2022-10-01T18:21:32.678Z,13.32
2022-10-01T18:24:03.427Z,13.29
2022-10-01T18:26:30.642Z,13.35
2022-10-01T18:28:56.918Z,13.33
2022-10-01T18:31:23.264Z,13.38
2022-10-01T18:33:49.647Z,13.30
2022-10-01T18:36:15.939Z,13.33
2022-10-01T18:38:42.833Z,13.46
2022-10-01T18:41:09.953Z,13.38
2022-10-01T18:43:36.198Z,13.39
2022-10-01T18:46:02.512Z,13.18
2022-10-01T18:48:28.906Z,13.17
2022-10-01T18:50:55.156Z,13.15
2022-10-01T18:53:21.417Z,13.15
2022-10-01T18:55:47.668Z,13.24
2022-10-01T18:58:14.978Z,13.14
2022-10-01T19:00:41.653Z,13.11
2022-10-01T19:03:08.030Z,13.11
2022-10-01T19:05:34.345Z,13.08
2022-10-01T19:08:00.624Z,13.14
2022-10-01T19:10:26.879Z,13.27
2022-10-01T19:12:53.141Z,13.23
2022-10-01T19:15:19.386Z,13.31
2022-10-01T19:17:45.675Z,13.25
2022-10-01T19:20:11.968Z,13.15
2022-10-01T19:22:38.238Z,13.20
2022-10-01T19:25:04.491Z,13.20
2022-10-01T19:27:30.759Z,13.21
2022-10-01T19:29:57.442Z,13.20
2022-10-01T19:32:23.728Z,13.15
2022-10-01T19:34:49.984Z,13.16
2022-10-01T19:37:16.262Z,13.16
2022-10-01T19:39:42.539Z,13.06
2022-10-01T19:42:08.798Z,13.06
2022-10-01T19:44:35.067Z,13.12
2022-10-01T19:47:01.588Z,12.97
2022-10-01T19:49:27.893Z,13.10
2022-10-01T19:51:54.163Z,13.01
2022-10-01T19:54:21.041Z,13.10
2022-10-01T19:56:47.301Z,13.09
2022-10-01T19:59:14.490Z,12.98
2022-10-01T20:01:40.777Z,12.99
2022-10-01T20:04:07.075Z,13.01
2022-10-01T20:06:33.639Z,12.99
2022-10-01T20:09:00.174Z,12.89
2022-10-01T20:11:26.413Z,12.91
2022-10-01T20:13:52.674Z,12.92
2022-10-01T20:16:19.190Z,12.91
2022-10-01T20:18:45.495Z,12.91
2022-10-01T20:21:11.779Z,12.90
2022-10-01T20:23:38.667Z,12.91
2022-10-01T20:26:05.139Z,12.81
2022-10-01T20:28:31.430Z,12.84
2022-10-01T20:30:58.252Z,12.81
2022-10-01T20:33:24.564Z,12.78
2022-10-01T20:35:50.835Z,12.82
2022-10-01T20:38:17.352Z,12.78
2022-10-01T20:40:43.866Z,12.79
2022-10-01T20:43:10.611Z,12.80
2022-10-01T20:45:36.897Z,12.82
2022-10-01T20:48:03.233Z,12.68
2022-10-01T20:50:29.504Z,12.74
2022-10-01T20:52:56.148Z,12.79
2022-10-01T20:55:29.074Z,12.63
2022-10-01T20:57:55.724Z,12.66
2022-10-01T21:00:23.162Z,12.73
2022-10-01T21:02:50.899Z,12.74
2022-10-01T21:05:17.143Z,12.72
2022-10-01T21:07:43.406Z,12.68
2022-10-01T21:10:09.719Z,12.64
2022-10-01T21:12:36.108Z,12.61
2022-10-01T21:15:02.452Z,12.67
2022-10-01T21:17:28.739Z,12.61
2022-10-01T21:19:54.996Z,12.60
2022-10-01T21:22:21.292Z,12.62
2022-10-01T21:24:47.571Z,12.58
2022-10-01T21:27:13.829Z,12.63
2022-10-01T21:29:40.094Z,12.62
2022-10-01T21:32:06.351Z,12.62
2022-10-01T21:34:32.606Z,12.51
2022-10-01T21:36:58.846Z,12.63
2022-10-01T21:39:25.108Z,12.59
2022-10-01T21:41:53.577Z,12.54
2022-10-01T21:44:19.867Z,12.57
2022-10-01T21:46:46.123Z,12.63
2022-10-01T21:49:13.439Z,12.61
2022-10-01T21:51:39.707Z,12.69
2022-10-01T21:54:05.976Z,12.71
2022-10-01T21:56:32.230Z,12.78
2022-10-01T21:58:58.514Z,12.68
2022-10-01T22:01:24.842Z,12.66
2022-10-01T22:03:51.264Z,12.65
2022-10-01T22:06:17.510Z,12.69
2022-10-01T22:08:43.768Z,12.63
2022-10-01T22:11:10.043Z,12.52
2022-10-01T22:13:36.303Z,12.56
2022-10-01T22:16:02.662Z,12.57
2022-10-01T22:18:29.007Z,12.45
2022-10-01T22:20:55.255Z,12.42
2022-10-01T22:23:21.521Z,12.50
2022-10-01T22:25:47.813Z,12.48
2022-10-01T22:28:14.124Z,12.49
2022-10-01T22:30:40.475Z,12.30
2022-10-01T22:33:06.752Z,12.41
2022-10-01T22:35:32.999Z,12.40
2022-10-01T22:37:59.395Z,12.44
2022-10-01T22:40:25.636Z,12.49
2022-10-01T22:42:52.023Z,12.45
2022-10-01T22:45:18.288Z,12.28
2022-10-01T22:47:44.550Z,12.38
2022-10-01T22:50:10.816Z,12.29
2022-10-01T22:52:37.092Z,12.28
2022-10-01T22:55:03.358Z,12.29
2022-10-01T22:57:29.603Z,12.28
2022-10-01T22:59:55.878Z,12.27
2022-10-01T23:02:22.218Z,12.24
2022-10-01T23:04:48.490Z,12.23
2022-10-01T23:07:14.751Z,12.18
2022-10-01T23:09:40.999Z,12.23
2022-10-01T23:12:07.243Z,12.19
2022-10-01T23:14:33.486Z,12.25
2022-10-01T23:16:59.887Z,12.29
2022-10-01T23:19:26.147Z,12.25
2022-10-01T23:21:52.460Z,12.30
2022-10-01T23:24:18.719Z,12.20
2022-10-01T23:26:44.965Z,12.23
2022-10-01T23:29:11.223Z,12.16
2022-10-01T23:31:37.579Z,12.10
2022-10-01T23:34:03.864Z,12.11
2022-10-01T23:36:30.123Z,12.08
2022-10-01T23:38:57.173Z,12.07
2022-10-01T23:41:23.417Z,12.12
2022-10-01T23:43:49.827Z,12.15
2022-10-01T23:46:16.166Z,12.03
2022-10-01T23:48:42.456Z,12.14
2022-10-01T23:51:08.720Z,12.15
2022-10-01T23:53:34.982Z,12.14
2022-10-01T23:56:19.996Z,12.10
2022-10-01T23:58:46.415Z,12.06
